Hauptseite
METAR-TAF:

METAR-TAF

Flughäfen :

Flugplatz Les Eplatures

La Chaux-de-Fonds, Schweiz

Breite: 47-05-03N, Länge: 006-47-37E, Höhe: 1027 m

Beobachtung

Neuester Wetterbericht von vor 16 Minuten, um 00:20 UTC
Wind 2 kt aus Süd/Südwest
Temperatur 0°C
Luftfeuchtigkeit 93%
Luftdruck 1002 hPa
Sichtweite: 5000 m
Geschlossene Wolkendecke in der Höhe von 700 ft
Geschlossene Wolkendecke in der Höhe von 3000 ft
Geschlossene Wolkendecke in der Höhe von 3500 ft
Schnee leicht

METAR: LSGC 130020Z AUTO 21002KT 5000 -SN OVC007 OVC030 OVC035 00/M01 Q1002

Zeit: 01:36 (00:36 UTC)

Prognose

Neuester Wetterbericht von vor 10 Stunden und 11 Minuten, um 14:25 UTC
Gültige Prognose vom 12 um 15 UTC bis 12 um 24 UTC
Wind 8 kt aus West/Südwest
Sichtweite 10 km oder mehr
Aufgelockert bewölkt in der Höhe von 2000 ft
Durchbrochene Bewölkung in der Höhe von 3000 ft

TAF: LSGC 121425Z 1215/1224 24008KT 9999 SCT020 BKN030

Wetterbeobachtungen und Prognosen von mehr als 4000 Flughäfen (METAR und TAF Bericht).

Die verfügbaren Stationen werden durch gelbe und rote Markierungen auf der Karte dargestellt.

Führen Sie die Maus auf sie, um den Namen der Station zu sehen.

Darauf klicken, um die Beobachtung von Wetterbeobachtungen und Prognosen zu sehen.

Um die Karte zu ändern : klicken Sie auf den grünen Tasten mit einem schwarzen Kreuz Zum Vergrößern, auf den grünen Button mit einem Gedankenstrich zu verkleinern, oder auf die grünen Pfeile für benachbarte Karten.


METAR-TAF: